createdAt,value
2018-09-17T00:01:06.946Z,86.03
2018-09-17T00:06:04.358Z,86.62
2018-09-17T00:11:01.823Z,86.61
2018-09-17T00:15:59.243Z,87.14
2018-09-17T00:20:56.666Z,87.31
2018-09-17T00:25:54.151Z,87.55
2018-09-17T00:30:53.316Z,84.80
2018-09-17T00:35:50.803Z,86.16
2018-09-17T00:40:48.235Z,87.38
2018-09-17T00:45:45.660Z,86.03
2018-09-17T00:50:43.038Z,83.73
2018-09-17T00:55:40.426Z,86.03
2018-09-17T01:00:37.861Z,87.01
2018-09-17T01:05:35.336Z,86.71
2018-09-17T01:10:32.749Z,86.36
2018-09-17T01:15:30.115Z,86.57
2018-09-17T01:20:27.599Z,87.01
2018-09-17T01:25:24.986Z,88.24
2018-09-17T01:30:22.398Z,88.24
2018-09-17T01:35:19.794Z,87.53
2018-09-17T01:40:17.211Z,84.05
2018-09-17T01:45:14.654Z,86.61
2018-09-17T01:50:12.025Z,87.92
2018-09-17T01:55:09.426Z,86.25
2018-09-17T02:00:06.859Z,87.21
2018-09-17T02:05:04.350Z,88.31
2018-09-17T02:10:02.899Z,86.88
2018-09-17T02:15:00.302Z,86.21
2018-09-17T02:19:57.698Z,87.92
2018-09-17T02:24:55.144Z,88.84
2018-09-17T02:29:52.548Z,88.76
2018-09-17T02:34:49.918Z,88.29
2018-09-17T02:39:56.610Z,87.55
2018-09-17T02:44:53.995Z,85.40
2018-09-17T02:49:51.406Z,87.46
2018-09-17T02:54:48.793Z,85.93
2018-09-17T02:59:46.173Z,87.50
2018-09-17T03:04:43.552Z,87.96
2018-09-17T03:09:55.839Z,88.54
2018-09-17T03:14:54.259Z,86.25
2018-09-17T03:19:51.655Z,86.72
2018-09-17T03:24:49.107Z,85.90
2018-09-17T03:29:46.471Z,85.24
2018-09-17T03:34:43.939Z,84.40
2018-09-17T03:39:46.788Z,85.46
2018-09-17T03:44:44.226Z,85.50
2018-09-17T03:49:41.632Z,86.87
2018-09-17T03:54:39.027Z,85.89
2018-09-17T03:59:36.398Z,86.59
2018-09-17T04:04:33.782Z,86.29
2018-09-17T04:09:43.867Z,86.08
2018-09-17T04:14:41.308Z,85.93
2018-09-17T04:19:38.761Z,87.57
2018-09-17T04:24:36.151Z,87.10
2018-09-17T04:29:33.535Z,88.69
2018-09-17T04:34:30.918Z,87.01
2018-09-17T04:39:32.542Z,86.48
2018-09-17T04:44:29.936Z,88.25
2018-09-17T04:49:27.332Z,88.38
2018-09-17T04:54:24.724Z,85.59
2018-09-17T04:59:22.127Z,85.15
2018-09-17T05:04:19.539Z,85.44
2018-09-17T05:09:16.999Z,85.11
2018-09-17T05:14:14.383Z,85.35
2018-09-17T05:19:11.793Z,86.21
2018-09-17T05:24:09.279Z,85.91
2018-09-17T05:29:06.741Z,77.37
2018-09-17T05:34:04.167Z,72.45
2018-09-17T05:39:01.583Z,73.19
2018-09-17T05:43:58.979Z,75.52
2018-09-17T05:48:56.407Z,76.53
2018-09-17T05:53:53.858Z,77.29
2018-09-17T05:58:52.046Z,76.81
2018-09-17T06:03:49.462Z,74.86
2018-09-17T06:08:46.886Z,73.18
2018-09-17T06:13:44.298Z,69.47
2018-09-17T06:18:41.676Z,63.96
2018-09-17T06:23:39.076Z,69.47
2018-09-17T06:28:36.519Z,72.93
2018-09-17T06:33:33.905Z,71.00
2018-09-17T06:38:31.295Z,72.68
2018-09-17T06:43:28.662Z,71.88
2018-09-17T06:48:26.062Z,71.95
2018-09-17T06:53:23.464Z,73.21
2018-09-17T06:58:20.854Z,72.89
2018-09-17T07:03:18.242Z,71.06
2018-09-17T07:08:15.654Z,71.19
2018-09-17T07:13:13.079Z,74.40
2018-09-17T07:18:10.515Z,75.18
2018-09-17T07:23:07.894Z,73.01
2018-09-17T07:28:05.361Z,70.09
2018-09-17T07:33:02.732Z,66.12
2018-09-17T07:38:00.139Z,62.25
2018-09-17T07:42:57.547Z,61.27
2018-09-17T07:47:54.981Z,60.15
2018-09-17T07:52:52.384Z,58.90
2018-09-17T07:57:49.818Z,58.66
2018-09-17T08:02:47.303Z,56.15
2018-09-17T08:07:44.797Z,54.63
2018-09-17T08:12:42.222Z,54.91
2018-09-17T08:17:39.628Z,54.50
2018-09-17T08:22:37.030Z,55.65
2018-09-17T08:27:34.528Z,54.04
2018-09-17T08:32:32.006Z,52.73
2018-09-17T08:37:29.407Z,52.52
2018-09-17T08:42:26.827Z,53.45
2018-09-17T08:47:24.326Z,52.17
2018-09-17T08:52:22.027Z,49.52
2018-09-17T08:57:26.084Z,53.39
2018-09-17T09:02:29.002Z,49.96
2018-09-17T09:07:35.612Z,49.11
2018-09-17T09:12:39.374Z,49.78
2018-09-17T09:17:36.752Z,50.07
2018-09-17T09:22:34.180Z,49.77
2018-09-17T09:27:31.574Z,50.34
2018-09-17T09:32:28.974Z,49.88
2018-09-17T09:37:26.353Z,48.04
2018-09-17T09:42:23.759Z,47.43
2018-09-17T09:47:21.159Z,47.71
2018-09-17T09:52:18.542Z,50.56
2018-09-17T09:57:15.916Z,47.03
2018-09-17T10:02:18.852Z,49.08
2018-09-17T10:07:16.255Z,46.99
2018-09-17T10:12:19.325Z,46.10
2018-09-17T10:17:22.403Z,47.10
2018-09-17T10:22:21.050Z,44.61
2018-09-17T10:27:18.710Z,43.53
2018-09-17T10:32:16.106Z,46.31
2018-09-17T10:37:13.510Z,44.09
2018-09-17T10:42:10.914Z,42.58
2018-09-17T10:47:09.009Z,44.69
2018-09-17T10:52:06.470Z,43.24
2018-09-17T10:57:03.939Z,41.75
2018-09-17T11:02:01.358Z,41.73
2018-09-17T11:06:58.782Z,41.87
2018-09-17T11:11:56.233Z,42.53
2018-09-17T11:16:53.670Z,42.12
2018-09-17T11:21:51.079Z,41.95
2018-09-17T11:26:48.526Z,43.10
2018-09-17T11:31:46.332Z,42.08
2018-09-17T11:36:43.743Z,43.03
2018-09-17T11:41:41.256Z,43.37
2018-09-17T11:46:38.672Z,40.81
2018-09-17T11:51:36.114Z,39.49
2018-09-17T11:56:33.524Z,40.21
2018-09-17T12:01:36.652Z,39.81
2018-09-17T12:06:39.600Z,41.28
2018-09-17T12:11:37.055Z,41.44
2018-09-17T12:16:34.487Z,40.09
2018-09-17T12:21:32.046Z,40.25
2018-09-17T12:26:29.444Z,40.00
2018-09-17T12:31:26.867Z,38.51
2018-09-17T12:36:24.278Z,37.72
2018-09-17T12:41:21.797Z,38.59
2018-09-17T12:46:19.215Z,39.00
2018-09-17T12:51:16.635Z,37.81
2018-09-17T12:56:14.046Z,36.50
2018-09-17T13:01:11.446Z,37.87
2018-09-17T13:06:08.856Z,37.99
2018-09-17T13:11:06.370Z,35.70
2018-09-17T13:16:03.841Z,36.22
2018-09-17T13:21:01.679Z,37.10
2018-09-17T13:25:59.375Z,35.65
2018-09-17T13:30:56.804Z,33.94
2018-09-17T13:35:54.217Z,36.49
2018-09-17T13:40:51.662Z,35.52
2018-09-17T13:45:49.074Z,35.98
2018-09-17T13:50:46.500Z,35.02
2018-09-17T13:55:43.936Z,35.76
2018-09-17T14:00:41.395Z,33.26
2018-09-17T14:05:38.842Z,33.45
2018-09-17T14:10:36.315Z,33.12
2018-09-17T14:15:33.723Z,32.62
2018-09-17T14:20:32.846Z,33.13
2018-09-17T14:25:30.258Z,32.32
2018-09-17T14:30:27.715Z,32.07
2018-09-17T14:35:25.241Z,31.98
2018-09-17T14:40:22.626Z,33.03
2018-09-17T14:45:20.180Z,32.08
2018-09-17T14:50:17.562Z,30.97
2018-09-17T14:55:14.955Z,32.41
2018-09-17T15:00:12.373Z,33.08
2018-09-17T15:05:09.844Z,33.22
2018-09-17T15:10:08.428Z,31.91
2018-09-17T15:15:05.914Z,32.52
2018-09-17T15:20:04.335Z,32.31
2018-09-17T15:25:01.789Z,33.49
2018-09-17T15:29:59.204Z,31.94
2018-09-17T15:34:56.590Z,33.21
2018-09-17T15:40:00.158Z,33.19
2018-09-17T15:44:57.591Z,35.47
2018-09-17T15:49:55.005Z,36.03
2018-09-17T15:54:52.418Z,35.72
2018-09-17T15:59:49.825Z,36.76
2018-09-17T16:04:47.230Z,38.50
2018-09-17T16:09:51.228Z,37.70
2018-09-17T16:14:48.656Z,37.00
2018-09-17T16:19:46.099Z,38.47
2018-09-17T16:24:43.512Z,38.17
2018-09-17T16:29:41.019Z,38.91
2018-09-17T16:34:38.560Z,39.90
2018-09-17T16:39:42.240Z,40.36
2018-09-17T16:44:39.720Z,41.43
2018-09-17T16:49:37.126Z,42.41
2018-09-17T16:54:34.539Z,43.25
2018-09-17T16:59:31.963Z,43.93
2018-09-17T17:04:30.426Z,45.44
2018-09-17T17:09:45.995Z,46.05
2018-09-17T17:14:44.130Z,47.63
2018-09-17T17:19:41.562Z,48.96
2018-09-17T17:24:38.977Z,50.75
2018-09-17T17:29:36.419Z,52.47
2018-09-17T17:34:33.811Z,54.25
2018-09-17T17:39:41.861Z,56.03
2018-09-17T17:44:40.277Z,58.42
2018-09-17T17:49:37.659Z,59.05
2018-09-17T17:54:35.113Z,58.12
2018-09-17T17:59:32.446Z,57.38
2018-09-17T18:04:31.020Z,59.47
2018-09-17T18:09:33.136Z,61.26
2018-09-17T18:14:30.568Z,62.01
2018-09-17T18:19:27.968Z,62.38
2018-09-17T18:24:25.350Z,63.07
2018-09-17T18:29:22.716Z,63.31
2018-09-17T18:34:20.123Z,65.20
2018-09-17T18:39:17.555Z,65.23
2018-09-17T18:44:14.918Z,67.34
2018-09-17T18:49:12.263Z,67.78
2018-09-17T18:54:16.475Z,68.06
2018-09-17T18:59:13.882Z,68.54
2018-09-17T19:04:13.405Z,69.02
2018-09-17T19:09:11.835Z,68.88
2018-09-17T19:14:14.938Z,69.93
2018-09-17T19:19:12.448Z,69.98
2018-09-17T19:24:09.839Z,66.34
2018-09-17T19:29:13.117Z,68.01
2018-09-17T19:34:11.370Z,69.42
2018-09-17T19:39:15.119Z,70.04
2018-09-17T19:44:12.930Z,71.11
2018-09-17T19:49:10.927Z,71.16
2018-09-17T19:54:08.377Z,71.43
2018-09-17T19:59:11.747Z,71.35
2018-09-17T20:04:15.427Z,71.10
2018-09-17T20:09:13.407Z,71.55
2018-09-17T20:14:10.811Z,72.64
2018-09-17T20:19:08.198Z,72.66
2018-09-17T20:24:05.610Z,73.04
2018-09-17T20:29:03.017Z,73.74
2018-09-17T20:34:00.407Z,74.37
2018-09-17T20:38:57.776Z,74.25
2018-09-17T20:43:56.165Z,73.84
2018-09-17T20:48:53.642Z,73.34
2018-09-17T20:53:51.059Z,73.57
2018-09-17T20:58:48.468Z,74.35
2018-09-17T21:03:45.952Z,72.89
2018-09-17T21:08:43.367Z,73.52
2018-09-17T21:13:40.823Z,73.77
2018-09-17T21:18:38.275Z,72.28
2018-09-17T21:23:35.743Z,71.15
2018-09-17T21:28:33.143Z,69.57
2018-09-17T21:33:30.515Z,68.42
2018-09-17T21:38:27.963Z,65.64
2018-09-17T21:43:25.387Z,64.77
2018-09-17T21:48:22.769Z,63.18
2018-09-17T21:53:20.194Z,62.69
2018-09-17T21:58:17.571Z,62.63
2018-09-17T22:03:14.979Z,62.26
2018-09-17T22:08:12.422Z,61.74
2018-09-17T22:13:09.847Z,63.32
2018-09-17T22:18:07.255Z,63.53
2018-09-17T22:23:04.699Z,63.90
2018-09-17T22:28:02.518Z,64.00
2018-09-17T22:32:59.903Z,64.44
2018-09-17T22:37:57.297Z,65.25
2018-09-17T22:42:55.702Z,65.25
2018-09-17T22:47:53.094Z,64.50
2018-09-17T22:52:50.507Z,65.54
2018-09-17T22:57:47.944Z,64.59
2018-09-17T23:02:46.437Z,65.26
2018-09-17T23:07:43.823Z,65.26
2018-09-17T23:12:41.293Z,66.20
2018-09-17T23:17:38.676Z,65.96
2018-09-17T23:22:37.043Z,67.29
2018-09-17T23:27:34.419Z,69.96
2018-09-17T23:32:31.855Z,68.17
2018-09-17T23:37:29.251Z,66.88
2018-09-17T23:42:26.746Z,66.27
2018-09-17T23:47:24.171Z,67.04
2018-09-17T23:52:21.650Z,67.97
2018-09-17T23:57:19.039Z,69.18
